Mooar, Iowa
Current Conditions -  °F | °C
As of 4:15 AM on Wednesday 26 Nov 2014 (Local Time) from KEOK Reporting Station
Overcast Overcast  
Wind Chill: 22°   Ceiling: 10000
Heat Index: 28°   Visibility: 10mi
Dew Point: 23°   Wind: 6mph
Humidity: 80%   Direction: 150°SSE
Pressure: 30.03"   Gusts: NA
Location:  40.4274°N, 91.4507°W
Report Text: KEOK 261015Z AUTO 15005KT 10SM BKN100 OVC120 M02/M05 A3003 RMK AO2
Loading
Personal Weather Stations






























Interactive Weather Map New forecast layout! Learn more

10-Day Weather Forecast

Advertisements
Track Severe Weather on mobile